sensor_id;sensor_type;location;lat;lon;timestamp;temperature;humidity
6443;DHT22;3254;47.372;8.512;2022-12-07T00:02:04;2.60;35.30
6443;DHT22;3254;47.372;8.512;2022-12-07T00:04:30;2.60;35.80
6443;DHT22;3254;47.372;8.512;2022-12-07T00:06:55;2.60;35.70
6443;DHT22;3254;47.372;8.512;2022-12-07T00:09:21;2.60;37.10
6443;DHT22;3254;47.372;8.512;2022-12-07T00:11:51;2.60;38.30
6443;DHT22;3254;47.372;8.512;2022-12-07T00:14:18;2.60;38.00
6443;DHT22;3254;47.372;8.512;2022-12-07T00:16:44;2.70;38.50
6443;DHT22;3254;47.372;8.512;2022-12-07T00:19:12;2.70;38.80
6443;DHT22;3254;47.372;8.512;2022-12-07T00:21:38;2.70;38.50
6443;DHT22;3254;47.372;8.512;2022-12-07T00:24:05;2.70;37.80
6443;DHT22;3254;47.372;8.512;2022-12-07T00:26:34;2.80;38.20
6443;DHT22;3254;47.372;8.512;2022-12-07T00:29:02;2.80;39.00
6443;DHT22;3254;47.372;8.512;2022-12-07T00:31:31;2.80;39.50
6443;DHT22;3254;47.372;8.512;2022-12-07T00:33:58;2.80;37.60
6443;DHT22;3254;47.372;8.512;2022-12-07T00:36:24;2.80;37.60
6443;DHT22;3254;47.372;8.512;2022-12-07T00:38:50;2.80;36.50
6443;DHT22;3254;47.372;8.512;2022-12-07T00:41:18;2.80;37.10
6443;DHT22;3254;47.372;8.512;2022-12-07T00:43:45;2.90;36.10
6443;DHT22;3254;47.372;8.512;2022-12-07T00:46:12;2.90;35.50
6443;DHT22;3254;47.372;8.512;2022-12-07T00:48:37;2.90;36.30
6443;DHT22;3254;47.372;8.512;2022-12-07T00:51:04;2.90;34.90
6443;DHT22;3254;47.372;8.512;2022-12-07T00:53:30;2.90;34.20
6443;DHT22;3254;47.372;8.512;2022-12-07T00:55:57;2.90;34.70
6443;DHT22;3254;47.372;8.512;2022-12-07T00:58:23;2.90;34.80
6443;DHT22;3254;47.372;8.512;2022-12-07T01:00:49;3.00;34.10
6443;DHT22;3254;47.372;8.512;2022-12-07T01:03:15;3.00;32.50
6443;DHT22;3254;47.372;8.512;2022-12-07T01:05:50;3.00;33.30
6443;DHT22;3254;47.372;8.512;2022-12-07T01:08:16;3.00;32.60
6443;DHT22;3254;47.372;8.512;2022-12-07T01:10:41;3.00;32.30
6443;DHT22;3254;47.372;8.512;2022-12-07T01:13:07;3.00;32.10
6443;DHT22;3254;47.372;8.512;2022-12-07T01:15:32;3.00;31.90
6443;DHT22;3254;47.372;8.512;2022-12-07T01:17:58;3.00;33.00
6443;DHT22;3254;47.372;8.512;2022-12-07T01:20:23;3.00;32.40
6443;DHT22;3254;47.372;8.512;2022-12-07T01:22:49;3.00;32.10
6443;DHT22;3254;47.372;8.512;2022-12-07T01:25:15;3.10;30.60
6443;DHT22;3254;47.372;8.512;2022-12-07T01:27:40;3.10;32.50
6443;DHT22;3254;47.372;8.512;2022-12-07T01:30:06;3.00;30.10
6443;DHT22;3254;47.372;8.512;2022-12-07T01:32:33;3.00;27.60
6443;DHT22;3254;47.372;8.512;2022-12-07T01:34:58;3.00;27.20
6443;DHT22;3254;47.372;8.512;2022-12-07T01:37:24;3.00;26.20
6443;DHT22;3254;47.372;8.512;2022-12-07T01:39:50;3.00;25.80
6443;DHT22;3254;47.372;8.512;2022-12-07T01:42:17;3.00;25.50
6443;DHT22;3254;47.372;8.512;2022-12-07T01:47:49;3.10;25.70
6443;DHT22;3254;47.372;8.512;2022-12-07T01:50:15;3.10;25.30
6443;DHT22;3254;47.372;8.512;2022-12-07T01:52:42;3.10;26.20
6443;DHT22;3254;47.372;8.512;2022-12-07T01:55:12;3.10;26.30
6443;DHT22;3254;47.372;8.512;2022-12-07T01:57:44;3.10;25.50
6443;DHT22;3254;47.372;8.512;2022-12-07T02:00:11;3.10;25.30
6443;DHT22;3254;47.372;8.512;2022-12-07T02:02:51;3.10;25.30
6443;DHT22;3254;47.372;8.512;2022-12-07T02:05:18;3.00;25.30
6443;DHT22;3254;47.372;8.512;2022-12-07T02:07:44;3.00;26.40
6443;DHT22;3254;47.372;8.512;2022-12-07T02:12:39;3.10;26.20
6443;DHT22;3254;47.372;8.512;2022-12-07T02:15:05;3.00;26.70
6443;DHT22;3254;47.372;8.512;2022-12-07T02:18:10;3.00;26.00
6443;DHT22;3254;47.372;8.512;2022-12-07T02:20:57;3.00;23.80
6443;DHT22;3254;47.372;8.512;2022-12-07T02:23:46;2.90;23.80
6443;DHT22;3254;47.372;8.512;2022-12-07T02:26:29;2.90;24.10
6443;DHT22;3254;47.372;8.512;2022-12-07T02:32:06;2.90;22.00
6443;DHT22;3254;47.372;8.512;2022-12-07T02:37:03;2.90;22.00
6443;DHT22;3254;47.372;8.512;2022-12-07T02:39:46;2.90;21.00
6443;DHT22;3254;47.372;8.512;2022-12-07T02:42:28;2.90;20.00
6443;DHT22;3254;47.372;8.512;2022-12-07T02:44:57;2.90;19.30
6443;DHT22;3254;47.372;8.512;2022-12-07T02:47:25;2.80;19.30
6443;DHT22;3254;47.372;8.512;2022-12-07T02:49:52;2.70;19.40
6443;DHT22;3254;47.372;8.512;2022-12-07T02:52:17;2.80;20.40
6443;DHT22;3254;47.372;8.512;2022-12-07T02:54:43;2.70;20.10
6443;DHT22;3254;47.372;8.512;2022-12-07T03:00:11;2.80;19.70
6443;DHT22;3254;47.372;8.512;2022-12-07T03:02:49;2.90;18.80
6443;DHT22;3254;47.372;8.512;2022-12-07T03:08:21;2.90;16.50
6443;DHT22;3254;47.372;8.512;2022-12-07T03:10:58;2.80;16.20
6443;DHT22;3254;47.372;8.512;2022-12-07T03:16:17;2.80;15.00
6443;DHT22;3254;47.372;8.512;2022-12-07T03:18:53;2.80;13.80
6443;DHT22;3254;47.372;8.512;2022-12-07T03:21:31;2.80;13.70
6443;DHT22;3254;47.372;8.512;2022-12-07T03:24:00;2.90;12.80
6443;DHT22;3254;47.372;8.512;2022-12-07T03:26:33;2.90;12.80
6443;DHT22;3254;47.372;8.512;2022-12-07T03:29:06;2.90;13.20
6443;DHT22;3254;47.372;8.512;2022-12-07T03:31:38;2.90;13.90
6443;DHT22;3254;47.372;8.512;2022-12-07T03:34:22;3.00;13.50
6443;DHT22;3254;47.372;8.512;2022-12-07T03:37:00;2.90;11.70
6443;DHT22;3254;47.372;8.512;2022-12-07T03:39:32;2.90;11.50
6443;DHT22;3254;47.372;8.512;2022-12-07T03:42:00;2.90;11.40
6443;DHT22;3254;47.372;8.512;2022-12-07T03:44:27;2.90;10.70
6443;DHT22;3254;47.372;8.512;2022-12-07T03:47:34;2.90;11.10
6443;DHT22;3254;47.372;8.512;2022-12-07T03:49:55;3.00;11.60
6443;DHT22;3254;47.372;8.512;2022-12-07T03:52:28;3.10;11.70
6443;DHT22;3254;47.372;8.512;2022-12-07T03:57:33;3.10;10.80
6443;DHT22;3254;47.372;8.512;2022-12-07T03:59:59;3.20;10.00
6443;DHT22;3254;47.372;8.512;2022-12-07T04:02:27;3.20;9.20
6443;DHT22;3254;47.372;8.512;2022-12-07T04:04:54;3.10;8.80
6443;DHT22;3254;47.372;8.512;2022-12-07T04:07:20;3.20;9.00
6443;DHT22;3254;47.372;8.512;2022-12-07T04:09:45;3.20;9.30
6443;DHT22;3254;47.372;8.512;2022-12-07T04:12:11;3.20;8.90
6443;DHT22;3254;47.372;8.512;2022-12-07T04:14:37;3.20;7.60
6443;DHT22;3254;47.372;8.512;2022-12-07T04:17:02;3.20;8.20
6443;DHT22;3254;47.372;8.512;2022-12-07T04:19:30;3.10;8.00
6443;DHT22;3254;47.372;8.512;2022-12-07T04:21:57;3.10;9.00
6443;DHT22;3254;47.372;8.512;2022-12-07T04:24:23;3.20;9.80
6443;DHT22;3254;47.372;8.512;2022-12-07T04:26:49;3.20;9.40
6443;DHT22;3254;47.372;8.512;2022-12-07T04:29:16;3.20;10.60
6443;DHT22;3254;47.372;8.512;2022-12-07T04:31:42;3.10;9.40
6443;DHT22;3254;47.372;8.512;2022-12-07T04:34:10;3.10;10.10
6443;DHT22;3254;47.372;8.512;2022-12-07T04:36:36;3.10;9.90
6443;DHT22;3254;47.372;8.512;2022-12-07T04:39:02;3.00;10.20
6443;DHT22;3254;47.372;8.512;2022-12-07T04:41:28;3.10;11.20
6443;DHT22;3254;47.372;8.512;2022-12-07T04:43:55;3.10;10.60
6443;DHT22;3254;47.372;8.512;2022-12-07T04:46:23;3.10;10.50
6443;DHT22;3254;47.372;8.512;2022-12-07T04:48:49;3.10;9.30
6443;DHT22;3254;47.372;8.512;2022-12-07T04:51:26;3.10;9.70
6443;DHT22;3254;47.372;8.512;2022-12-07T04:53:52;3.20;9.90
6443;DHT22;3254;47.372;8.512;2022-12-07T04:56:19;3.20;8.80
6443;DHT22;3254;47.372;8.512;2022-12-07T04:58:46;3.20;8.60
6443;DHT22;3254;47.372;8.512;2022-12-07T05:01:13;3.20;8.00
6443;DHT22;3254;47.372;8.512;2022-12-07T05:03:39;3.20;8.60
6443;DHT22;3254;47.372;8.512;2022-12-07T05:06:06;3.20;7.40
6443;DHT22;3254;47.372;8.512;2022-12-07T05:08:32;3.20;8.30
6443;DHT22;3254;47.372;8.512;2022-12-07T05:10:58;3.30;7.90
6443;DHT22;3254;47.372;8.512;2022-12-07T05:13:24;3.20;7.30
6443;DHT22;3254;47.372;8.512;2022-12-07T05:15:50;3.20;7.50
6443;DHT22;3254;47.372;8.512;2022-12-07T05:18:15;3.20;8.40
6443;DHT22;3254;47.372;8.512;2022-12-07T05:20:42;3.20;7.00
6443;DHT22;3254;47.372;8.512;2022-12-07T05:23:08;3.20;5.70
6443;DHT22;3254;47.372;8.512;2022-12-07T05:25:33;3.20;7.70
6443;DHT22;3254;47.372;8.512;2022-12-07T05:27:59;3.20;6.60
6443;DHT22;3254;47.372;8.512;2022-12-07T05:30:26;3.20;6.50
6443;DHT22;3254;47.372;8.512;2022-12-07T05:32:52;3.20;6.10
6443;DHT22;3254;47.372;8.512;2022-12-07T05:35:18;3.10;6.30
6443;DHT22;3254;47.372;8.512;2022-12-07T05:37:44;3.10;6.00
6443;DHT22;3254;47.372;8.512;2022-12-07T05:40:11;3.10;7.00
6443;DHT22;3254;47.372;8.512;2022-12-07T05:42:36;3.20;6.60
6443;DHT22;3254;47.372;8.512;2022-12-07T05:45:02;3.20;5.80
6443;DHT22;3254;47.372;8.512;2022-12-07T05:47:28;3.20;6.00
6443;DHT22;3254;47.372;8.512;2022-12-07T05:49:53;3.10;6.20
6443;DHT22;3254;47.372;8.512;2022-12-07T05:52:19;3.20;6.50
6443;DHT22;3254;47.372;8.512;2022-12-07T05:54:45;3.20;6.80
6443;DHT22;3254;47.372;8.512;2022-12-07T05:57:10;3.20;5.40
6443;DHT22;3254;47.372;8.512;2022-12-07T05:59:36;3.30;5.70
6443;DHT22;3254;47.372;8.512;2022-12-07T06:02:07;3.20;5.30
6443;DHT22;3254;47.372;8.512;2022-12-07T06:04:36;3.20;5.50
6443;DHT22;3254;47.372;8.512;2022-12-07T06:07:02;3.20;5.10
6443;DHT22;3254;47.372;8.512;2022-12-07T06:09:28;3.20;4.80
6443;DHT22;3254;47.372;8.512;2022-12-07T06:11:55;3.20;5.90
6443;DHT22;3254;47.372;8.512;2022-12-07T06:14:41;3.20;5.60
6443;DHT22;3254;47.372;8.512;2022-12-07T06:17:06;3.20;5.90
6443;DHT22;3254;47.372;8.512;2022-12-07T06:19:32;3.20;5.50
6443;DHT22;3254;47.372;8.512;2022-12-07T06:21:58;3.20;5.80
6443;DHT22;3254;47.372;8.512;2022-12-07T06:24:24;3.20;6.20
6443;DHT22;3254;47.372;8.512;2022-12-07T06:26:50;3.20;6.00
6443;DHT22;3254;47.372;8.512;2022-12-07T06:29:17;3.30;6.10
6443;DHT22;3254;47.372;8.512;2022-12-07T06:31:42;3.20;6.60
6443;DHT22;3254;47.372;8.512;2022-12-07T06:34:16;3.30;6.30
6443;DHT22;3254;47.372;8.512;2022-12-07T06:36:43;3.30;6.50
6443;DHT22;3254;47.372;8.512;2022-12-07T06:39:09;3.30;7.20
6443;DHT22;3254;47.372;8.512;2022-12-07T06:41:36;3.30;7.10
6443;DHT22;3254;47.372;8.512;2022-12-07T06:44:03;3.30;7.60
6443;DHT22;3254;47.372;8.512;2022-12-07T06:46:28;3.30;8.40
6443;DHT22;3254;47.372;8.512;2022-12-07T06:48:54;3.30;8.10
6443;DHT22;3254;47.372;8.512;2022-12-07T06:51:19;3.30;7.50
6443;DHT22;3254;47.372;8.512;2022-12-07T06:53:45;3.30;7.30
6443;DHT22;3254;47.372;8.512;2022-12-07T06:56:10;3.30;6.90
6443;DHT22;3254;47.372;8.512;2022-12-07T06:58:36;3.30;8.80
6443;DHT22;3254;47.372;8.512;2022-12-07T07:01:02;3.30;8.80
6443;DHT22;3254;47.372;8.512;2022-12-07T07:03:28;3.30;8.40
6443;DHT22;3254;47.372;8.512;2022-12-07T07:05:54;3.30;8.80
6443;DHT22;3254;47.372;8.512;2022-12-07T07:08:19;3.30;10.00
6443;DHT22;3254;47.372;8.512;2022-12-07T07:10:45;3.30;10.90
6443;DHT22;3254;47.372;8.512;2022-12-07T07:13:10;3.30;11.70
6443;DHT22;3254;47.372;8.512;2022-12-07T07:15:37;3.20;13.10
6443;DHT22;3254;47.372;8.512;2022-12-07T07:18:03;3.20;14.20
6443;DHT22;3254;47.372;8.512;2022-12-07T07:20:29;3.20;17.10
6443;DHT22;3254;47.372;8.512;2022-12-07T07:22:55;3.10;17.90
6443;DHT22;3254;47.372;8.512;2022-12-07T07:25:21;3.10;19.00
6443;DHT22;3254;47.372;8.512;2022-12-07T07:27:47;3.00;20.70
6443;DHT22;3254;47.372;8.512;2022-12-07T07:30:13;3.00;22.00
6443;DHT22;3254;47.372;8.512;2022-12-07T07:32:38;3.00;24.40
6443;DHT22;3254;47.372;8.512;2022-12-07T07:35:04;3.00;29.20
6443;DHT22;3254;47.372;8.512;2022-12-07T07:37:30;3.00;31.20
6443;DHT22;3254;47.372;8.512;2022-12-07T07:39:55;3.00;34.10
6443;DHT22;3254;47.372;8.512;2022-12-07T07:42:21;3.00;34.20
6443;DHT22;3254;47.372;8.512;2022-12-07T07:44:46;3.00;36.30
6443;DHT22;3254;47.372;8.512;2022-12-07T07:47:12;2.90;39.20
6443;DHT22;3254;47.372;8.512;2022-12-07T07:49:37;2.80;43.40
6443;DHT22;3254;47.372;8.512;2022-12-07T07:52:04;2.90;46.50
6443;DHT22;3254;47.372;8.512;2022-12-07T07:54:30;2.90;49.60
6443;DHT22;3254;47.372;8.512;2022-12-07T07:56:56;2.90;52.00
6443;DHT22;3254;47.372;8.512;2022-12-07T07:59:21;2.90;52.90
6443;DHT22;3254;47.372;8.512;2022-12-07T08:01:47;2.90;53.00
6443;DHT22;3254;47.372;8.512;2022-12-07T08:04:12;2.90;53.90
6443;DHT22;3254;47.372;8.512;2022-12-07T08:06:38;2.90;54.50
6443;DHT22;3254;47.372;8.512;2022-12-07T08:09:03;2.90;57.30
6443;DHT22;3254;47.372;8.512;2022-12-07T08:11:31;2.90;58.70
6443;DHT22;3254;47.372;8.512;2022-12-07T08:13:56;2.90;56.30
6443;DHT22;3254;47.372;8.512;2022-12-07T08:16:22;2.80;56.40
6443;DHT22;3254;47.372;8.512;2022-12-07T08:18:47;2.90;56.20
6443;DHT22;3254;47.372;8.512;2022-12-07T08:21:14;2.80;58.80
6443;DHT22;3254;47.372;8.512;2022-12-07T08:23:40;2.80;60.50
6443;DHT22;3254;47.372;8.512;2022-12-07T08:26:10;2.80;61.20
6443;DHT22;3254;47.372;8.512;2022-12-07T08:28:37;2.80;59.20
6443;DHT22;3254;47.372;8.512;2022-12-07T08:31:15;2.80;60.50
6443;DHT22;3254;47.372;8.512;2022-12-07T08:33:41;2.80;63.50
6443;DHT22;3254;47.372;8.512;2022-12-07T08:36:09;2.80;66.60
6443;DHT22;3254;47.372;8.512;2022-12-07T08:38:35;3.00;67.00
6443;DHT22;3254;47.372;8.512;2022-12-07T08:41:01;2.90;64.10
6443;DHT22;3254;47.372;8.512;2022-12-07T08:43:27;2.90;67.00
6443;DHT22;3254;47.372;8.512;2022-12-07T08:46:13;3.00;71.00
6443;DHT22;3254;47.372;8.512;2022-12-07T08:48:51;3.00;72.50
6443;DHT22;3254;47.372;8.512;2022-12-07T08:51:18;3.00;68.80
6443;DHT22;3254;47.372;8.512;2022-12-07T08:53:44;3.00;70.20
6443;DHT22;3254;47.372;8.512;2022-12-07T08:56:10;3.00;69.00
6443;DHT22;3254;47.372;8.512;2022-12-07T08:58:37;3.00;68.50
6443;DHT22;3254;47.372;8.512;2022-12-07T09:01:04;3.00;70.50
6443;DHT22;3254;47.372;8.512;2022-12-07T09:03:30;3.00;68.00
6443;DHT22;3254;47.372;8.512;2022-12-07T09:05:55;3.00;66.60
6443;DHT22;3254;47.372;8.512;2022-12-07T09:08:23;3.00;68.50
6443;DHT22;3254;47.372;8.512;2022-12-07T09:10:50;3.10;68.90
6443;DHT22;3254;47.372;8.512;2022-12-07T09:13:16;3.10;67.50
6443;DHT22;3254;47.372;8.512;2022-12-07T09:15:42;3.00;60.20
6443;DHT22;3254;47.372;8.512;2022-12-07T09:18:07;3.10;64.80
6443;DHT22;3254;47.372;8.512;2022-12-07T09:20:33;3.10;65.30
6443;DHT22;3254;47.372;8.512;2022-12-07T09:22:59;3.10;64.70
6443;DHT22;3254;47.372;8.512;2022-12-07T09:25:24;3.20;63.20
6443;DHT22;3254;47.372;8.512;2022-12-07T09:27:57;3.20;60.30
6443;DHT22;3254;47.372;8.512;2022-12-07T09:30:23;3.20;61.20
6443;DHT22;3254;47.372;8.512;2022-12-07T09:32:48;3.20;63.50
6443;DHT22;3254;47.372;8.512;2022-12-07T09:35:14;3.20;66.10
6443;DHT22;3254;47.372;8.512;2022-12-07T09:37:40;3.20;64.40
6443;DHT22;3254;47.372;8.512;2022-12-07T09:40:06;3.20;61.60
6443;DHT22;3254;47.372;8.512;2022-12-07T09:42:38;3.30;59.40
6443;DHT22;3254;47.372;8.512;2022-12-07T09:45:25;3.30;57.90
6443;DHT22;3254;47.372;8.512;2022-12-07T09:47:52;3.30;56.70
6443;DHT22;3254;47.372;8.512;2022-12-07T09:50:26;3.40;58.20
6443;DHT22;3254;47.372;8.512;2022-12-07T09:52:53;3.50;57.10
6443;DHT22;3254;47.372;8.512;2022-12-07T09:55:28;3.50;56.20
6443;DHT22;3254;47.372;8.512;2022-12-07T09:57:54;3.50;56.80
6443;DHT22;3254;47.372;8.512;2022-12-07T10:00:22;3.60;53.10
6443;DHT22;3254;47.372;8.512;2022-12-07T10:02:59;3.60;51.30
6443;DHT22;3254;47.372;8.512;2022-12-07T10:05:35;3.70;55.00
6443;DHT22;3254;47.372;8.512;2022-12-07T10:08:03;3.70;50.90
6443;DHT22;3254;47.372;8.512;2022-12-07T10:10:32;3.70;47.70
6443;DHT22;3254;47.372;8.512;2022-12-07T10:15:38;3.70;47.10
6443;DHT22;3254;47.372;8.512;2022-12-07T10:18:21;3.70;47.00
6443;DHT22;3254;47.372;8.512;2022-12-07T10:20:47;3.80;47.10
6443;DHT22;3254;47.372;8.512;2022-12-07T10:23:17;3.80;46.50
6443;DHT22;3254;47.372;8.512;2022-12-07T10:25:44;3.90;47.10
6443;DHT22;3254;47.372;8.512;2022-12-07T10:28:15;3.90;42.70
6443;DHT22;3254;47.372;8.512;2022-12-07T10:35:55;4.10;40.50
6443;DHT22;3254;47.372;8.512;2022-12-07T10:38:21;4.10;33.40
6443;DHT22;3254;47.372;8.512;2022-12-07T10:40:47;4.10;32.50
6443;DHT22;3254;47.372;8.512;2022-12-07T10:58:53;4.80;20.00
6443;DHT22;3254;47.372;8.512;2022-12-07T11:01:43;4.90;16.10
6443;DHT22;3254;47.372;8.512;2022-12-07T11:07:40;5.10;15.00
6443;DHT22;3254;47.372;8.512;2022-12-07T11:10:13;5.10;15.00
6443;DHT22;3254;47.372;8.512;2022-12-07T11:13:04;5.10;13.20
6443;DHT22;3254;47.372;8.512;2022-12-07T11:18:31;5.00;9.60
6443;DHT22;3254;47.372;8.512;2022-12-07T11:21:19;4.90;10.30
6443;DHT22;3254;47.372;8.512;2022-12-07T11:23:55;4.80;10.80
6443;DHT22;3254;47.372;8.512;2022-12-07T11:26:39;4.70;11.60
6443;DHT22;3254;47.372;8.512;2022-12-07T11:34:52;4.60;12.20
6443;DHT22;3254;47.372;8.512;2022-12-07T11:37:25;4.60;10.30
6443;DHT22;3254;47.372;8.512;2022-12-07T11:39:58;4.60;10.30
6443;DHT22;3254;47.372;8.512;2022-12-07T11:42:29;4.50;11.60
6443;DHT22;3254;47.372;8.512;2022-12-07T11:47:40;4.50;11.20
6443;DHT22;3254;47.372;8.512;2022-12-07T11:50:32;4.40;10.30
6443;DHT22;3254;47.372;8.512;2022-12-07T11:55:52;4.20;9.30
6443;DHT22;3254;47.372;8.512;2022-12-07T12:01:28;4.30;9.80
6443;DHT22;3254;47.372;8.512;2022-12-07T12:04:01;4.20;7.60
6443;DHT22;3254;47.372;8.512;2022-12-07T12:06:27;4.20;8.90
6443;DHT22;3254;47.372;8.512;2022-12-07T12:09:19;4.20;8.40
6443;DHT22;3254;47.372;8.512;2022-12-07T12:12:20;4.30;5.10
6443;DHT22;3254;47.372;8.512;2022-12-07T12:20:32;4.40;3.10
6443;DHT22;3254;47.372;8.512;2022-12-07T12:28:04;4.70;2.50
6443;DHT22;3254;47.372;8.512;2022-12-07T12:30:38;4.80;1.20
6443;DHT22;3254;47.372;8.512;2022-12-07T12:33:20;4.80;1.00
6443;DHT22;3254;47.372;8.512;2022-12-07T12:51:50;5.50;1.00
6443;DHT22;3254;47.372;8.512;2022-12-07T12:54:20;5.50;1.00
6443;DHT22;3254;47.372;8.512;2022-12-07T12:59:32;5.70;1.00
6443;DHT22;3254;47.372;8.512;2022-12-07T13:02:21;5.80;1.00
6443;DHT22;3254;47.372;8.512;2022-12-07T13:10:45;6.00;1.00
6443;DHT22;3254;47.372;8.512;2022-12-07T13:15:41;6.00;1.00
6443;DHT22;3254;47.372;8.512;2022-12-07T13:23:51;6.10;1.00
6443;DHT22;3254;47.372;8.512;2022-12-07T13:31:48;6.00;1.00
6443;DHT22;3254;47.372;8.512;2022-12-07T13:34:41;6.00;1.00
6443;DHT22;3254;47.372;8.512;2022-12-07T13:37:25;6.00;1.00
6443;DHT22;3254;47.372;8.512;2022-12-07T13:39:59;6.00;1.00
6443;DHT22;3254;47.372;8.512;2022-12-07T13:42:28;5.90;1.00
6443;DHT22;3254;47.372;8.512;2022-12-07T13:44:56;6.00;1.00
6443;DHT22;3254;47.372;8.512;2022-12-07T13:47:46;6.00;1.00
6443;DHT22;3254;47.372;8.512;2022-12-07T13:50:29;6.20;1.00
6443;DHT22;3254;47.372;8.512;2022-12-07T13:52:57;6.10;1.00
6443;DHT22;3254;47.372;8.512;2022-12-07T13:55:23;6.10;1.00
6443;DHT22;3254;47.372;8.512;2022-12-07T13:57:51;6.10;1.00
6443;DHT22;3254;47.372;8.512;2022-12-07T14:00:28;6.10;1.00
6443;DHT22;3254;47.372;8.512;2022-12-07T14:03:00;6.20;1.00
6443;DHT22;3254;47.372;8.512;2022-12-07T14:05:33;6.10;1.00
6443;DHT22;3254;47.372;8.512;2022-12-07T14:10:35;6.10;1.00
6443;DHT22;3254;47.372;8.512;2022-12-07T14:13:03;6.10;1.00
6443;DHT22;3254;47.372;8.512;2022-12-07T14:15:31;6.10;1.00
6443;DHT22;3254;47.372;8.512;2022-12-07T14:17:58;6.10;1.00
6443;DHT22;3254;47.372;8.512;2022-12-07T14:20:40;6.10;1.00
6443;DHT22;3254;47.372;8.512;2022-12-07T14:23:24;6.10;1.00
6443;DHT22;3254;47.372;8.512;2022-12-07T14:25:52;6.00;1.00
6443;DHT22;3254;47.372;8.512;2022-12-07T14:28:32;5.70;1.00
6443;DHT22;3254;47.372;8.512;2022-12-07T14:30:59;5.60;1.00
6443;DHT22;3254;47.372;8.512;2022-12-07T14:33:26;5.60;1.00
6443;DHT22;3254;47.372;8.512;2022-12-07T14:35:51;5.50;1.00
6443;DHT22;3254;47.372;8.512;2022-12-07T14:38:24;5.50;1.00
6443;DHT22;3254;47.372;8.512;2022-12-07T14:40:51;5.40;1.00
6443;DHT22;3254;47.372;8.512;2022-12-07T14:43:18;5.30;1.00
6443;DHT22;3254;47.372;8.512;2022-12-07T14:45:44;5.30;1.00
6443;DHT22;3254;47.372;8.512;2022-12-07T14:48:14;5.30;1.00
6443;DHT22;3254;47.372;8.512;2022-12-07T14:50:44;5.30;1.00
6443;DHT22;3254;47.372;8.512;2022-12-07T14:53:15;5.20;1.00
6443;DHT22;3254;47.372;8.512;2022-12-07T14:55:41;5.10;1.00
6443;DHT22;3254;47.372;8.512;2022-12-07T14:58:16;5.00;1.00
6443;DHT22;3254;47.372;8.512;2022-12-07T15:00:42;4.90;1.00
6443;DHT22;3254;47.372;8.512;2022-12-07T15:03:07;5.00;1.00
6443;DHT22;3254;47.372;8.512;2022-12-07T15:05:33;4.90;1.00
6443;DHT22;3254;47.372;8.512;2022-12-07T15:07:59;5.00;1.00
6443;DHT22;3254;47.372;8.512;2022-12-07T15:10:28;4.90;1.00
6443;DHT22;3254;47.372;8.512;2022-12-07T15:12:56;4.80;1.00
6443;DHT22;3254;47.372;8.512;2022-12-07T15:15:45;4.80;1.00
6443;DHT22;3254;47.372;8.512;2022-12-07T15:18:10;4.70;1.00
6443;DHT22;3254;47.372;8.512;2022-12-07T15:20:36;4.60;1.00
6443;DHT22;3254;47.372;8.512;2022-12-07T15:23:01;4.60;1.00
6443;DHT22;3254;47.372;8.512;2022-12-07T15:25:27;4.50;1.00
6443;DHT22;3254;47.372;8.512;2022-12-07T15:27:52;4.40;1.00
6443;DHT22;3254;47.372;8.512;2022-12-07T15:30:18;4.40;1.00
6443;DHT22;3254;47.372;8.512;2022-12-07T15:32:44;4.40;1.00
6443;DHT22;3254;47.372;8.512;2022-12-07T15:35:09;4.30;1.00
6443;DHT22;3254;47.372;8.512;2022-12-07T15:37:35;4.30;1.00
6443;DHT22;3254;47.372;8.512;2022-12-07T15:40:00;4.20;1.00
6443;DHT22;3254;47.372;8.512;2022-12-07T15:42:26;4.20;1.00
6443;DHT22;3254;47.372;8.512;2022-12-07T15:44:51;4.20;1.00
6443;DHT22;3254;47.372;8.512;2022-12-07T15:49:58;4.10;1.00
6443;DHT22;3254;47.372;8.512;2022-12-07T15:52:23;4.20;1.00
6443;DHT22;3254;47.372;8.512;2022-12-07T15:54:49;4.20;1.00
6443;DHT22;3254;47.372;8.512;2022-12-07T15:57:15;4.10;1.00
6443;DHT22;3254;47.372;8.512;2022-12-07T15:59:40;4.10;1.00
6443;DHT22;3254;47.372;8.512;2022-12-07T16:02:07;4.00;1.00
6443;DHT22;3254;47.372;8.512;2022-12-07T16:04:33;4.00;1.00
6443;DHT22;3254;47.372;8.512;2022-12-07T16:06:58;3.90;1.00
6443;DHT22;3254;47.372;8.512;2022-12-07T16:09:24;3.80;1.00
6443;DHT22;3254;47.372;8.512;2022-12-07T16:11:49;3.80;1.00
6443;DHT22;3254;47.372;8.512;2022-12-07T16:14:15;3.80;1.00
6443;DHT22;3254;47.372;8.512;2022-12-07T16:16:41;3.70;1.00
6443;DHT22;3254;47.372;8.512;2022-12-07T16:19:07;3.70;1.00
6443;DHT22;3254;47.372;8.512;2022-12-07T16:21:34;3.70;1.00
6443;DHT22;3254;47.372;8.512;2022-12-07T16:24:01;3.70;1.00
6443;DHT22;3254;47.372;8.512;2022-12-07T16:26:26;3.60;1.00
6443;DHT22;3254;47.372;8.512;2022-12-07T16:28:53;3.50;1.00
6443;DHT22;3254;47.372;8.512;2022-12-07T16:31:21;3.40;1.00
6443;DHT22;3254;47.372;8.512;2022-12-07T16:33:47;3.40;1.00
6443;DHT22;3254;47.372;8.512;2022-12-07T16:36:15;3.40;1.00
6443;DHT22;3254;47.372;8.512;2022-12-07T16:38:44;3.30;1.00
6443;DHT22;3254;47.372;8.512;2022-12-07T16:41:10;3.30;1.00
6443;DHT22;3254;47.372;8.512;2022-12-07T16:43:36;3.20;1.00
6443;DHT22;3254;47.372;8.512;2022-12-07T16:46:03;3.10;1.00
6443;DHT22;3254;47.372;8.512;2022-12-07T16:48:29;3.00;1.00
6443;DHT22;3254;47.372;8.512;2022-12-07T16:50:54;2.90;1.00
6443;DHT22;3254;47.372;8.512;2022-12-07T16:53:21;2.80;1.00
6443;DHT22;3254;47.372;8.512;2022-12-07T16:55:48;2.80;1.00
6443;DHT22;3254;47.372;8.512;2022-12-07T16:58:14;2.60;1.00
6443;DHT22;3254;47.372;8.512;2022-12-07T17:00:41;2.60;1.00
6443;DHT22;3254;47.372;8.512;2022-12-07T17:03:07;2.60;1.00
6443;DHT22;3254;47.372;8.512;2022-12-07T17:05:36;2.50;1.00
6443;DHT22;3254;47.372;8.512;2022-12-07T17:08:02;2.50;1.00
6443;DHT22;3254;47.372;8.512;2022-12-07T17:10:28;2.40;1.00
6443;DHT22;3254;47.372;8.512;2022-12-07T17:12:54;2.30;1.00
6443;DHT22;3254;47.372;8.512;2022-12-07T17:15:19;2.20;1.00
6443;DHT22;3254;47.372;8.512;2022-12-07T17:17:53;2.10;1.00
6443;DHT22;3254;47.372;8.512;2022-12-07T17:20:19;2.00;1.00
6443;DHT22;3254;47.372;8.512;2022-12-07T17:22:46;1.90;1.00
6443;DHT22;3254;47.372;8.512;2022-12-07T17:25:12;1.90;1.00
6443;DHT22;3254;47.372;8.512;2022-12-07T17:27:38;1.80;1.00
6443;DHT22;3254;47.372;8.512;2022-12-07T17:30:05;1.80;1.00
6443;DHT22;3254;47.372;8.512;2022-12-07T17:32:31;1.60;1.00
6443;DHT22;3254;47.372;8.512;2022-12-07T17:34:57;1.60;1.00
6443;DHT22;3254;47.372;8.512;2022-12-07T17:37:22;1.50;1.00
6443;DHT22;3254;47.372;8.512;2022-12-07T17:39:48;1.50;2.60
6443;DHT22;3254;47.372;8.512;2022-12-07T17:42:14;1.40;4.60
6443;DHT22;3254;47.372;8.512;2022-12-07T17:44:58;1.30;7.50
6443;DHT22;3254;47.372;8.512;2022-12-07T17:47:24;1.20;10.50
6443;DHT22;3254;47.372;8.512;2022-12-07T17:49:49;1.10;12.70
6443;DHT22;3254;47.372;8.512;2022-12-07T17:52:15;1.20;16.50
6443;DHT22;3254;47.372;8.512;2022-12-07T17:55:00;1.10;18.40
6443;DHT22;3254;47.372;8.512;2022-12-07T17:57:26;1.00;19.50
6443;DHT22;3254;47.372;8.512;2022-12-07T17:59:52;0.90;21.50
6443;DHT22;3254;47.372;8.512;2022-12-07T18:02:19;0.80;24.50
6443;DHT22;3254;47.372;8.512;2022-12-07T18:04:45;0.60;28.70
6443;DHT22;3254;47.372;8.512;2022-12-07T18:07:12;0.60;35.20
6443;DHT22;3254;47.372;8.512;2022-12-07T18:09:38;0.50;42.30
6443;DHT22;3254;47.372;8.512;2022-12-07T18:12:04;0.50;47.40
6443;DHT22;3254;47.372;8.512;2022-12-07T18:14:30;0.50;51.40
6443;DHT22;3254;47.372;8.512;2022-12-07T18:16:55;0.40;52.60
6443;DHT22;3254;47.372;8.512;2022-12-07T18:19:21;0.40;57.70
6443;DHT22;3254;47.372;8.512;2022-12-07T18:21:47;0.40;63.50
6443;DHT22;3254;47.372;8.512;2022-12-07T18:24:15;0.40;65.90
6443;DHT22;3254;47.372;8.512;2022-12-07T18:26:42;0.40;68.80
6443;DHT22;3254;47.372;8.512;2022-12-07T18:29:13;0.30;71.30
6443;DHT22;3254;47.372;8.512;2022-12-07T18:31:39;0.40;74.50
6443;DHT22;3254;47.372;8.512;2022-12-07T18:34:07;0.40;74.00
6443;DHT22;3254;47.372;8.512;2022-12-07T18:36:40;0.40;75.70